Flight Track Log - Related Links

Times and Time Zones

All times are in EDT time to prevent confusion due to time zone crossing. See the FLG3454 flight status page for this flight to view local times or setup timezone preferences in your user account.

Time Position Orientation Groundspeed Altitude Reporting Facility
EDT Latitude Longitude Course Direction KTS MPH feet Rate Location/Type
Mon 02:06:23 PM 39.0500 -84.6833 351° North 163 188 1,500  Level Cincinnati TRACON
Mon 02:06:41 PM 39.0500 -84.7000 270° West 166 191 2,300 2,462 Climbing Cincinnati TRACON
Mon 02:07:41 PM 39.1000 -84.7333 333° Northwest 201 231 4,700 2,200 Climbing Cincinnati TRACON
Mon 02:08:41 PM 39.1500 -84.7667 333° Northwest 257 296 6,700 2,509 Climbing Cincinnati TRACON
Mon 02:09:00 PM 38.9337 -84.8204 313° West  Level FlightAware Approximate
Mon 02:10:00 PM 38.9927 -84.8754 345° North  Level FlightAware Approximate
Mon 02:10:26 PM 39.2675 -84.8397 334° Northwest 252 290 11,600  Level Indianapolis Center
Mon 02:11:00 PM 39.0671 -84.8934 351° North  Level FlightAware Approximate
Mon 02:11:27 PM 39.3417 -84.8825 336° Northwest 275 316 14,700  Level Indianapolis Center
Mon 02:12:29 PM 39.4114 -84.9264 334° Northwest 280 322 17,000 2,177 Climbing Indianapolis Center
Mon 02:13:31 PM 39.4797 -84.9739 332° Northwest 281 323 19,200 1,951 Climbing Indianapolis Center
Mon 02:14:32 PM 39.5497 -85.0214 332° Northwest 284 327 21,000 1,122 Climbing Indianapolis Center
Mon 02:15:34 PM 39.6225 -85.0714 332° Northwest 295 339 21,500 484 Climbing Indianapolis Center
Mon 02:16:36 PM 39.6942 -85.1211 332° Northwest 293 337 22,000 242 Climbing Indianapolis Center
Mon 02:17:38 PM 39.7619 -85.1683 332° Northwest 282 325 22,000  Level Indianapolis Center
Mon 02:18:39 PM 39.8450 -85.2250 332° Northwest 284 327 22,000  Level Indianapolis Center
Mon 02:19:41 PM 39.9142 -85.2728 332° Northwest 282 325 22,000  Level Indianapolis Center
Mon 02:20:43 PM 39.9853 -85.3219 332° Northwest 288 331 22,000  Level Indianapolis Center
Mon 02:21:44 PM 40.0600 -85.3742 332° Northwest 303 349 22,000  Level Indianapolis Center
Mon 02:22:46 PM 40.1375 -85.4286 332° Northwest 315 362 22,000  Level Indianapolis Center
Mon 02:23:36 PM 40.2153 -85.4825 332° Northwest 322 371 22,000  Level Chicago Center
Mon 02:24:38 PM 40.2958 -85.5375 332° Northwest 328 377 22,000  Level Chicago Center
Mon 02:25:40 PM 40.3756 -85.5944 331° Northwest 328 377 22,000  Level Chicago Center
Mon 02:26:42 PM 40.4550 -85.6508 332° Northwest 327 376 22,000  Level Chicago Center
Mon 02:27:44 PM 40.5403 -85.6942 339° North 330 380 22,000  Level Chicago Center
Mon 02:28:46 PM 40.6275 -85.7289 343° North 329 379 22,000  Level Chicago Center
Mon 02:29:48 PM 40.7325 -85.7708 343° North 331 381 22,000  Level Chicago Center
Mon 02:30:51 PM 40.8206 -85.8056 343° North 331 381 22,000  Level Chicago Center
Mon 02:31:53 PM 40.9094 -85.8406 343° North 331 381 22,000  Level Chicago Center
Mon 02:32:55 PM 40.9886 -85.9000 330° Northwest 353 406 22,000 -194 Level Chicago Center
Mon 02:33:57 PM 41.0492 -85.9947 310° West 341 392 21,600 -774 Descending Chicago Center
Mon 02:34:59 PM 41.1186 -86.1067 309° West 333 383 20,400 -1,113 Descending Chicago Center
Mon 02:36:01 PM 41.1775 -86.2003 310° West 329 379 19,300 -1,113 Descending Chicago Center
Mon 02:37:03 PM 41.2378 -86.2994 309° West 341 392 18,100 -1,113 Descending Chicago Center
Mon 02:38:05 PM 41.3014 -86.4028 309° West 354 407 17,000 -1,258 Descending Chicago Center
Mon 02:39:07 PM 41.3642 -86.5039 310° West 355 409 15,500 -1,452 Descending Chicago Center
Mon 02:40:09 PM 41.4258 -86.6039 309° West 352 405 14,000 -1,548 Descending Chicago Center
Mon 02:41:11 PM 41.4969 -86.7172 310° West 346 398 12,300 -968 Descending Chicago Center
Mon 02:42:13 PM 41.5717 -86.7856 326° Northwest 344 396 12,000 -145 Descending Chicago Center
Mon 02:43:15 PM 41.6608 -86.7947 356° North 324 373 12,000  Level Chicago Center
Mon 02:44:18 PM 41.7483 -86.8058 355° North 320 368 12,000  Level Chicago Center
Mon 02:45:20 PM 41.8508 -86.8264 352° North 315 362 12,000  Level Chicago Center
Mon 02:46:22 PM 41.9078 -86.9089 313° West 316 364 12,000 -242 Level Chicago Center
Mon 02:47:24 PM 41.9239 -87.0272 280° West 322 371 11,500 -774 Descending Chicago Center
Mon 02:48:26 PM 41.9394 -87.1286 282° West 283 326 10,400 -1,258 Descending Chicago Center
Mon 02:49:28 PM 41.9517 -87.2194 280° West 256 295 8,900 -1,597 Descending Chicago Center
Mon 02:50:30 PM 41.9669 -87.3275 281° West 247 284 7,100 -919 Descending Chicago Center
Mon 02:51:32 PM 41.9794 -87.4172 281° West 246 283 7,000 -71 Descending Chicago Center
Mon 02:51:54 PM 41.9833 -87.4500 279° West 251 289 7,000 -732 Level Chicago TRACON
Mon 02:52:54 PM 41.9833 -87.5500 270° West 246 283 6,000 -1,300 Descending Chicago TRACON
Mon 02:53:54 PM 41.9833 -87.6333 270° West 230 265 4,400 -1,368 Descending Chicago TRACON
Mon 02:54:48 PM 41.9833 -87.7000 270° West 202 232 3,400 -1,053 Descending Chicago TRACON
Mon 02:55:48 PM 41.9833 -87.7667 270° West 187 215 2,400 -1,000 Descending Chicago TRACON

Login

Don't have an account? Register now (free) for customized features, flight alerts, and more!